Maral — EFGQ — position and weather

sailwx.info

Track history (hours):
 
Tides and Currents Weather Stations Pressure Air Temp Water Temp Dewpoint Dewpoint Depression Visibility Wind Speed Wind Dir Waves Ship Positions

Maral

Last reported at 2014-Sep-27 14:08 UTC. Time now 2014-Oct-22 14:05 UTC.
Position S 29°52' E 031°48'.
Warning: this ship's position is 24 days out of date.

Length 30 m; draft 4 m.

Type: Fishing. MMSI: 224544160.

Date/timePositionNaut miles runAvg speedWind from/ knotsBaromVisibWave heightAir tempDewpointWater temp
2014-Sep-27 14:08S 29°52' E 031°48'4 5.0
2014-Sep-27 13:24S 29°52' E 031°44'5 5.3
2014-Sep-27 12:31S 29°52' E 031°39'7 6.9
2014-Sep-27 11:33S 29°51' E 031°31'7 7.2
2014-Sep-27 10:34S 29°51' E 031°23'8 7.7
2014-Sep-27 09:33S 29°51' E 031°14'7 7.5
2014-Sep-27 08:33S 29°51' E 031°05'4 1.3
2014-Sep-27 05:30S 29°52' E 031°01'0 0.0
2014-Sep-27 04:30S 29°52' E 031°01'0 0.0
2014-Sep-27 03:30S 29°52' E 031°01'0 0.0
2014-Sep-27 00:24S 29°52' E 031°01'0 0.0
2014-Sep-26 23:30S 29°52' E 031°01'0 0.0
2014-Sep-26 22:06S 29°52' E 031°01'0 0.0
2014-Sep-26 21:30S 29°52' E 031°01'0 0.0
2014-Sep-26 20:24S 29°52' E 031°01'0 0.0
2014-Sep-26 19:24S 29°52' E 031°01'0 0.0
2014-Sep-26 18:30S 29°52' E 031°01'0 0.0
2014-Sep-26 17:30S 29°52' E 031°01'0 0.0
2014-Sep-26 16:18S 29°52' E 031°01'0 0.0
2014-Sep-26 15:24S 29°52' E 031°01'0 0.0
2014-Sep-26 14:30S 29°52' E 031°01'0 0.0
2014-Sep-26 13:18S 29°52' E 031°01'0 0.0
2014-Sep-26 12:12S 29°52' E 031°01'0 0.0
2014-Sep-26 11:12S 29°52' E 031°01'0 0.0
2014-Sep-26 10:24S 29°52' E 031°01'0 0.0
2014-Sep-26 09:12S 29°52' E 031°01'0 0.0
2014-Sep-26 08:30S 29°52' E 031°01'0 0.0
2014-Sep-26 07:30S 29°52' E 031°01'0 0.0
2014-Sep-26 06:30S 29°52' E 031°01'0 0.0
2014-Sep-26 05:18S 29°52' E 031°01'0 0.0
2014-Sep-26 03:12S 29°52' E 031°01'0 0.0
2014-Sep-26 02:30S 29°52' E 031°01'0 0.0
2014-Sep-25 23:24S 29°52' E 031°01'0 0.0
2014-Sep-25 22:18S 29°52' E 031°01'0 0.0
2014-Sep-25 21:06S 29°52' E 031°01'0 0.0
2014-Sep-25 20:18S 29°52' E 031°01'0 0.0
2014-Sep-25 19:18S 29°52' E 031°01'0 0.0
2014-Sep-25 18:24S 29°52' E 031°01'0 0.0
2014-Sep-25 17:24S 29°52' E 031°01'0 0.0
2014-Sep-25 16:24S 29°52' E 031°01'0 0.0
2014-Sep-25 14:24S 29°52' E 031°01'0 0.0
2014-Sep-25 13:24S 29°52' E 031°01'0 0.0
2014-Sep-25 12:18S 29°52' E 031°01'0 0.0
2014-Sep-25 11:18S 29°52' E 031°01'0 0.0
2014-Sep-25 10:06S 29°52' E 031°01'0 0.0
2014-Sep-25 09:30S 29°52' E 031°01'0 0.0
2014-Sep-25 08:30S 29°52' E 031°01'0 0.0
2014-Sep-25 07:30S 29°52' E 031°01'0 0.0
2014-Sep-25 06:30S 29°52' E 031°01'0 0.0
2014-Sep-25 04:30S 29°52' E 031°01'0 0.0
2014-Sep-25 02:18S 29°52' E 031°01'0 0.0
2014-Sep-25 01:30S 29°52' E 031°01'0 0.0
2014-Sep-25 00:24S 29°52' E 031°01'0 0.0
2014-Sep-24 23:24S 29°52' E 031°01'0 0.0
2014-Sep-24 22:30S 29°52' E 031°01'0 0.0
2014-Sep-24 21:30S 29°52' E 031°01'0 0.0
2014-Sep-24 20:24S 29°52' E 031°01'0 0.0
2014-Sep-24 19:18S 29°52' E 031°01'0 0.0
2014-Sep-24 18:30S 29°52' E 031°01'0 0.0
2014-Sep-24 17:24S 29°52' E 031°01'0 0.0
2014-Sep-24 16:30S 29°52' E 031°01'0 0.0
2014-Sep-24 14:18S 29°52' E 031°01'0 0.0
2014-Sep-24 13:30S 29°52' E 031°01'0 0.0
2014-Sep-24 11:24S 29°52' E 031°01'0 0.0
2014-Sep-24 10:18S 29°52' E 031°01'0 0.0
2014-Sep-24 09:24S 29°52' E 031°01'0 0.0
2014-Sep-24 08:24S 29°52' E 031°01'0 0.0
2014-Sep-24 07:18S 29°52' E 031°01'0 0.0
2014-Sep-24 06:18S 29°52' E 031°01'0 0.0
2014-Sep-24 05:30S 29°52' E 031°01'0 0.0
2014-Sep-24 04:24S 29°52' E 031°01'0 0.0
2014-Sep-24 03:24S 29°52' E 031°01'0 0.0
2014-Sep-24 01:30S 29°52' E 031°01'0 0.0
2014-Sep-24 00:30S 29°52' E 031°01'0 0.0
2014-Sep-23 23:11S 29°52' E 031°01'0 0.0
2014-Sep-23 22:30S 29°52' E 031°01'0 0.0
2014-Sep-23 21:30S 29°52' E 031°01'0 0.0
2014-Sep-23 20:29S 29°52' E 031°01'0 0.0
2014-Sep-23 19:17S 29°52' E 031°01'0 0.0
2014-Sep-23 18:29S 29°52' E 031°01'0 0.0
2014-Sep-23 17:30S 29°52' E 031°01'0 0.0
2014-Sep-23 16:29S 29°52' E 031°01'0 0.0
2014-Sep-23 15:23S 29°52' E 031°01'0 0.0
2014-Sep-23 14:29S 29°52' E 031°01'0 0.0
2014-Sep-23 13:26S 29°52' E 031°01'0 0.0
2014-Sep-22 06:31S 29°52' E 031°01'0 0.0
2014-Sep-22 05:25S 29°52' E 031°01'0 0.0
2014-Sep-22 04:31S 29°52' E 031°01'0 0.0
2014-Sep-22 02:31S 29°52' E 031°01'0 0.0
2014-Sep-22 01:13S 29°52' E 031°01'0 0.0
2014-Sep-22 00:25S 29°52' E 031°01'0 0.0
2014-Sep-21 23:25S 29°52' E 031°01'0 0.0
2014-Sep-21 22:31S 29°52' E 031°01'0 0.0
2014-Sep-21 21:25S 29°52' E 031°01'0 0.0
2014-Sep-21 20:13S 29°52' E 031°01'0 0.0
2014-Sep-21 19:25S 29°52' E 031°01'0 0.0
2014-Sep-21 18:25S 29°52' E 031°01'0 0.0
2014-Sep-21 17:25S 29°52' E 031°01'0 0.0
2014-Sep-21 16:19S 29°52' E 031°01'0 0.0
2014-Sep-21 15:31S 29°52' E 031°01'0 0.0
2014-Sep-21 14:25S 29°52' E 031°01'0 0.0
2014-Sep-21 13:13S 29°52' E 031°01'0 0.0
2014-Sep-21 12:25S 29°52' E 031°01'0 0.0
2014-Sep-21 11:19S 29°52' E 031°01'0 0.0
2014-Sep-21 10:25S 29°52' E 031°01'0 0.0
2014-Sep-21 09:31S 29°52' E 031°01'0 0.0
2014-Sep-21 08:25S 29°52' E 031°01'0 0.0
2014-Sep-21 07:31S 29°52' E 031°01'0 0.0
2014-Sep-21 06:31S 29°52' E 031°01'0 0.0
2014-Sep-21 05:25S 29°52' E 031°01'0 0.0
2014-Sep-21 04:25S 29°52' E 031°01'0 0.0
2014-Sep-21 03:31S 29°52' E 031°01'0 0.0
2014-Sep-21 02:31S 29°52' E 031°01'0 0.0
2014-Sep-21 01:31S 29°52' E 031°01'0 0.0
2014-Sep-21 00:31S 29°52' E 031°01'0 0.0
2014-Sep-20 23:25S 29°52' E 031°01'0 0.0
2014-Sep-20 22:25S 29°52' E 031°01'0 0.0
2014-Sep-20 21:07S 29°52' E 031°01'0 0.0
2014-Sep-20 20:31S 29°52' E 031°01'0 0.0
2014-Sep-20 19:25S 29°52' E 031°01'0 0.0
2014-Sep-20 18:31S 29°52' E 031°01'0 0.0
2014-Sep-20 17:25S 29°52' E 031°01'0 0.0
2014-Sep-20 15:13S 29°52' E 031°01'0 0.0
2014-Sep-20 14:31S 29°52' E 031°01'0 0.0
2014-Sep-20 13:31S 29°52' E 031°01'0 0.0
2014-Sep-20 12:25S 29°52' E 031°01'0 0.0
2014-Sep-20 11:25S 29°52' E 031°01'0 0.0
2014-Sep-20 09:31S 29°52' E 031°01'0 0.0
2014-Sep-20 08:25S 29°52' E 031°01'0 0.0
2014-Sep-20 07:31S 29°52' E 031°01'0 0.0
2014-Sep-20 06:31S 29°52' E 031°01'0 0.0
2014-Sep-20 05:31S 29°52' E 031°01'0 0.0
2014-Sep-20 03:07S 29°52' E 031°01'0 0.0
2014-Sep-20 02:31S 29°52' E 031°01'0 0.0
2014-Sep-20 01:31S 29°52' E 031°01'0 0.0
2014-Sep-20 00:25S 29°52' E 031°01'0 0.0
2014-Sep-19 23:31S 29°52' E 031°01'0 0.0
2014-Sep-19 22:25S 29°52' E 031°01'0 0.0
2014-Sep-19 21:07S 29°52' E 031°01'0 0.0
2014-Sep-19 20:13S 29°52' E 031°01'0 0.0
2014-Sep-19 19:31S 29°52' E 031°01'0 0.0
2014-Sep-19 18:19S 29°52' E 031°01'0 0.0
2014-Sep-19 17:25S 29°52' E 031°01'0 0.0
2014-Sep-19 16:25S 29°52' E 031°01'0 0.0
2014-Sep-19 12:31S 29°52' E 031°01'0 0.0
2014-Sep-19 11:19S 29°52' E 031°01'0 0.0
2014-Sep-19 10:13S 29°52' E 031°01'0 0.0
2014-Sep-19 09:07S 29°52' E 031°01'0 0.0
2014-Sep-19 08:13S 29°52' E 031°01'0 0.0
2014-Sep-19 07:31S 29°52' E 031°01'0 0.0
2014-Sep-19 06:13S 29°52' E 031°01'0 0.0
2014-Sep-19 05:13S 29°52' E 031°01'0 0.0
2014-Sep-19 04:31S 29°52' E 031°01'0 0.0
2014-Sep-19 03:19S 29°52' E 031°01'0 0.0
2014-Sep-19 02:31S 29°52' E 031°01'0 0.0
2014-Sep-19 01:31S 29°52' E 031°01'0 0.0
2014-Sep-19 00:31S 29°52' E 031°01'0 0.0
2014-Sep-18 23:31S 29°52' E 031°01'0 0.0
2014-Sep-18 22:31S 29°52' E 031°01'0 0.0
2014-Sep-18 21:31S 29°52' E 031°01'0 0.0
2014-Sep-18 20:19S 29°52' E 031°01'0 0.0
2014-Sep-18 19:19S 29°52' E 031°01'0 0.0
2014-Sep-18 18:31S 29°52' E 031°01'0 0.0
2014-Sep-18 17:31S 29°52' E 031°01'0 0.0
2014-Sep-18 16:31S 29°52' E 031°01'0 0.0
2014-Sep-18 15:19S 29°52' E 031°01'0 0.0
2014-Sep-18 14:31S 29°52' E 031°01'0 0.0
2014-Sep-18 13:31S 29°52' E 031°01'0 0.0
2014-Sep-18 12:31S 29°52' E 031°01'0 0.0
2014-Sep-18 11:31S 29°52' E 031°01'0 0.0
2014-Sep-18 10:31S 29°52' E 031°01'0 0.0
2014-Sep-18 09:31S 29°52' E 031°01'0 0.0
2014-Sep-18 08:31S 29°52' E 031°01'0 0.0
2014-Sep-18 07:25S 29°52' E 031°01'0 0.0
2014-Sep-18 06:31S 29°52' E 031°01'0 0.0
2014-Sep-18 05:19S 29°52' E 031°01'0 0.0
2014-Sep-18 04:25S 29°52' E 031°01'0 0.0
2014-Sep-18 03:31S 29°52' E 031°01'0 0.0
2014-Sep-18 02:31S 29°52' E 031°01'0 0.0
2014-Sep-18 01:19S 29°52' E 031°01'0 0.0
2014-Sep-18 00:31S 29°52' E 031°01'0 0.0
2014-Sep-17 23:31S 29°52' E 031°01'0 0.0
2014-Sep-17 22:31S 29°52' E 031°01'0 0.0
2014-Sep-17 21:31S 29°52' E 031°01'0 0.0
2014-Sep-17 20:30S 29°52' E 031°01'0 0.0
2014-Sep-17 19:19S 29°52' E 031°01'0 0.0
2014-Sep-17 18:31S 29°52' E 031°01'0 0.0
2014-Sep-17 17:31S 29°52' E 031°01'0 0.0
2014-Sep-17 16:30S 29°52' E 031°01'0 0.0
2014-Sep-17 15:32S 29°52' E 031°01'0 0.0
2014-Sep-17 14:30S 29°52' E 031°01'  
Track history (hours):
 
Tides and Currents Weather Stations Pressure Air Temp Water Temp Dewpoint Dewpoint Depression Visibility Wind Speed Wind Dir Waves Ship Positions

Maral

Last reported at 2014-Sep-27 14:08 UTC. Time now 2014-Oct-22 14:05 UTC.
Position S 29°52' E 031°48'.
Warning: this ship's position is 24 days out of date.

Length 30 m; draft 4 m.

Type: Fishing. MMSI: 224544160.

Date/timePositionNaut miles runAvg speedWind from/ knotsBaromVisibWave heightAir tempDewpointWater temp
2014-Sep-27 14:08S 29°52' E 031°48'4 5.0
2014-Sep-27 13:24S 29°52' E 031°44'5 5.3
2014-Sep-27 12:31S 29°52' E 031°39'7 6.9
2014-Sep-27 11:33S 29°51' E 031°31'7 7.2
2014-Sep-27 10:34S 29°51' E 031°23'8 7.7
2014-Sep-27 09:33S 29°51' E 031°14'7 7.5
2014-Sep-27 08:33S 29°51' E 031°05'4 1.3
2014-Sep-27 05:30S 29°52' E 031°01'0 0.0
2014-Sep-27 04:30S 29°52' E 031°01'0 0.0
2014-Sep-27 03:30S 29°52' E 031°01'0 0.0
2014-Sep-27 00:24S 29°52' E 031°01'0 0.0
2014-Sep-26 23:30S 29°52' E 031°01'0 0.0
2014-Sep-26 22:06S 29°52' E 031°01'0 0.0
2014-Sep-26 21:30S 29°52' E 031°01'0 0.0
2014-Sep-26 20:24S 29°52' E 031°01'0 0.0
2014-Sep-26 19:24S 29°52' E 031°01'0 0.0
2014-Sep-26 18:30S 29°52' E 031°01'0 0.0
2014-Sep-26 17:30S 29°52' E 031°01'0 0.0
2014-Sep-26 16:18S 29°52' E 031°01'0 0.0
2014-Sep-26 15:24S 29°52' E 031°01'0 0.0
2014-Sep-26 14:30S 29°52' E 031°01'0 0.0
2014-Sep-26 13:18S 29°52' E 031°01'0 0.0
2014-Sep-26 12:12S 29°52' E 031°01'0 0.0
2014-Sep-26 11:12S 29°52' E 031°01'0 0.0
2014-Sep-26 10:24S 29°52' E 031°01'0 0.0
2014-Sep-26 09:12S 29°52' E 031°01'0 0.0
2014-Sep-26 08:30S 29°52' E 031°01'0 0.0
2014-Sep-26 07:30S 29°52' E 031°01'0 0.0
2014-Sep-26 06:30S 29°52' E 031°01'0 0.0
2014-Sep-26 05:18S 29°52' E 031°01'0 0.0
2014-Sep-26 03:12S 29°52' E 031°01'0 0.0
2014-Sep-26 02:30S 29°52' E 031°01'0 0.0
2014-Sep-25 23:24S 29°52' E 031°01'0 0.0
2014-Sep-25 22:18S 29°52' E 031°01'0 0.0
2014-Sep-25 21:06S 29°52' E 031°01'0 0.0
2014-Sep-25 20:18S 29°52' E 031°01'0 0.0
2014-Sep-25 19:18S 29°52' E 031°01'0 0.0
2014-Sep-25 18:24S 29°52' E 031°01'0 0.0
2014-Sep-25 17:24S 29°52' E 031°01'0 0.0
2014-Sep-25 16:24S 29°52' E 031°01'0 0.0
2014-Sep-25 14:24S 29°52' E 031°01'0 0.0
2014-Sep-25 13:24S 29°52' E 031°01'0 0.0
2014-Sep-25 12:18S 29°52' E 031°01'0 0.0
2014-Sep-25 11:18S 29°52' E 031°01'0 0.0
2014-Sep-25 10:06S 29°52' E 031°01'0 0.0
2014-Sep-25 09:30S 29°52' E 031°01'0 0.0
2014-Sep-25 08:30S 29°52' E 031°01'0 0.0
2014-Sep-25 07:30S 29°52' E 031°01'0 0.0
2014-Sep-25 06:30S 29°52' E 031°01'0 0.0
2014-Sep-25 04:30S 29°52' E 031°01'0 0.0
2014-Sep-25 02:18S 29°52' E 031°01'0 0.0
2014-Sep-25 01:30S 29°52' E 031°01'0 0.0
2014-Sep-25 00:24S 29°52' E 031°01'0 0.0
2014-Sep-24 23:24S 29°52' E 031°01'0 0.0
2014-Sep-24 22:30S 29°52' E 031°01'0 0.0
2014-Sep-24 21:30S 29°52' E 031°01'0 0.0
2014-Sep-24 20:24S 29°52' E 031°01'0 0.0
2014-Sep-24 19:18S 29°52' E 031°01'0 0.0
2014-Sep-24 18:30S 29°52' E 031°01'0 0.0
2014-Sep-24 17:24S 29°52' E 031°01'0 0.0
2014-Sep-24 16:30S 29°52' E 031°01'0 0.0
2014-Sep-24 14:18S 29°52' E 031°01'0 0.0
2014-Sep-24 13:30S 29°52' E 031°01'0 0.0
2014-Sep-24 11:24S 29°52' E 031°01'0 0.0
2014-Sep-24 10:18S 29°52' E 031°01'0 0.0
2014-Sep-24 09:24S 29°52' E 031°01'0 0.0
2014-Sep-24 08:24S 29°52' E 031°01'0 0.0
2014-Sep-24 07:18S 29°52' E 031°01'0 0.0
2014-Sep-24 06:18S 29°52' E 031°01'0 0.0
2014-Sep-24 05:30S 29°52' E 031°01'0 0.0
2014-Sep-24 04:24S 29°52' E 031°01'0 0.0
2014-Sep-24 03:24S 29°52' E 031°01'0 0.0
2014-Sep-24 01:30S 29°52' E 031°01'0 0.0
2014-Sep-24 00:30S 29°52' E 031°01'0 0.0
2014-Sep-23 23:11S 29°52' E 031°01'0 0.0
2014-Sep-23 22:30S 29°52' E 031°01'0 0.0
2014-Sep-23 21:30S 29°52' E 031°01'0 0.0
2014-Sep-23 20:29S 29°52' E 031°01'0 0.0
2014-Sep-23 19:17S 29°52' E 031°01'0 0.0
2014-Sep-23 18:29S 29°52' E 031°01'0 0.0
2014-Sep-23 17:30S 29°52' E 031°01'0 0.0
2014-Sep-23 16:29S 29°52' E 031°01'0 0.0
2014-Sep-23 15:23S 29°52' E 031°01'0 0.0
2014-Sep-23 14:29S 29°52' E 031°01'0 0.0
2014-Sep-23 13:26S 29°52' E 031°01'0 0.0
2014-Sep-22 06:31S 29°52' E 031°01'0 0.0
2014-Sep-22 05:25S 29°52' E 031°01'0 0.0
2014-Sep-22 04:31S 29°52' E 031°01'0 0.0
2014-Sep-22 02:31S 29°52' E 031°01'0 0.0
2014-Sep-22 01:13S 29°52' E 031°01'0 0.0
2014-Sep-22 00:25S 29°52' E 031°01'0 0.0
2014-Sep-21 23:25S 29°52' E 031°01'0 0.0
2014-Sep-21 22:31S 29°52' E 031°01'0 0.0
2014-Sep-21 21:25S 29°52' E 031°01'0 0.0
2014-Sep-21 20:13S 29°52' E 031°01'0 0.0
2014-Sep-21 19:25S 29°52' E 031°01'0 0.0
2014-Sep-21 18:25S 29°52' E 031°01'0 0.0
2014-Sep-21 17:25S 29°52' E 031°01'0 0.0
2014-Sep-21 16:19S 29°52' E 031°01'0 0.0
2014-Sep-21 15:31S 29°52' E 031°01'0 0.0
2014-Sep-21 14:25S 29°52' E 031°01'0 0.0
2014-Sep-21 13:13S 29°52' E 031°01'0 0.0
2014-Sep-21 12:25S 29°52' E 031°01'0 0.0
2014-Sep-21 11:19S 29°52' E 031°01'0 0.0
2014-Sep-21 10:25S 29°52' E 031°01'0 0.0
2014-Sep-21 09:31S 29°52' E 031°01'0 0.0
2014-Sep-21 08:25S 29°52' E 031°01'0 0.0
2014-Sep-21 07:31S 29°52' E 031°01'0 0.0
2014-Sep-21 06:31S 29°52' E 031°01'0 0.0
2014-Sep-21 05:25S 29°52' E 031°01'0 0.0
2014-Sep-21 04:25S 29°52' E 031°01'0 0.0
2014-Sep-21 03:31S 29°52' E 031°01'0 0.0
2014-Sep-21 02:31S 29°52' E 031°01'0 0.0
2014-Sep-21 01:31S 29°52' E 031°01'0 0.0
2014-Sep-21 00:31S 29°52' E 031°01'0 0.0
2014-Sep-20 23:25S 29°52' E 031°01'0 0.0
2014-Sep-20 22:25S 29°52' E 031°01'0 0.0
2014-Sep-20 21:07S 29°52' E 031°01'0 0.0
2014-Sep-20 20:31S 29°52' E 031°01'0 0.0
2014-Sep-20 19:25S 29°52' E 031°01'0 0.0
2014-Sep-20 18:31S 29°52' E 031°01'0 0.0
2014-Sep-20 17:25S 29°52' E 031°01'0 0.0
2014-Sep-20 15:13S 29°52' E 031°01'0 0.0
2014-Sep-20 14:31S 29°52' E 031°01'0 0.0
2014-Sep-20 13:31S 29°52' E 031°01'0 0.0
2014-Sep-20 12:25S 29°52' E 031°01'0 0.0
2014-Sep-20 11:25S 29°52' E 031°01'0 0.0
2014-Sep-20 09:31S 29°52' E 031°01'0 0.0
2014-Sep-20 08:25S 29°52' E 031°01'0 0.0
2014-Sep-20 07:31S 29°52' E 031°01'0 0.0
2014-Sep-20 06:31S 29°52' E 031°01'0 0.0
2014-Sep-20 05:31S 29°52' E 031°01'0 0.0
2014-Sep-20 03:07S 29°52' E 031°01'0 0.0
2014-Sep-20 02:31S 29°52' E 031°01'0 0.0
2014-Sep-20 01:31S 29°52' E 031°01'0 0.0
2014-Sep-20 00:25S 29°52' E 031°01'0 0.0
2014-Sep-19 23:31S 29°52' E 031°01'0 0.0
2014-Sep-19 22:25S 29°52' E 031°01'0 0.0
2014-Sep-19 21:07S 29°52' E 031°01'0 0.0
2014-Sep-19 20:13S 29°52' E 031°01'0 0.0
2014-Sep-19 19:31S 29°52' E 031°01'0 0.0
2014-Sep-19 18:19S 29°52' E 031°01'0 0.0
2014-Sep-19 17:25S 29°52' E 031°01'0 0.0
2014-Sep-19 16:25S 29°52' E 031°01'0 0.0
2014-Sep-19 12:31S 29°52' E 031°01'0 0.0
2014-Sep-19 11:19S 29°52' E 031°01'0 0.0
2014-Sep-19 10:13S 29°52' E 031°01'0 0.0
2014-Sep-19 09:07S 29°52' E 031°01'0 0.0
2014-Sep-19 08:13S 29°52' E 031°01'0 0.0
2014-Sep-19 07:31S 29°52' E 031°01'0 0.0
2014-Sep-19 06:13S 29°52' E 031°01'0 0.0
2014-Sep-19 05:13S 29°52' E 031°01'0 0.0
2014-Sep-19 04:31S 29°52' E 031°01'0 0.0
2014-Sep-19 03:19S 29°52' E 031°01'0 0.0
2014-Sep-19 02:31S 29°52' E 031°01'0 0.0
2014-Sep-19 01:31S 29°52' E 031°01'0 0.0
2014-Sep-19 00:31S 29°52' E 031°01'0 0.0
2014-Sep-18 23:31S 29°52' E 031°01'0 0.0
2014-Sep-18 22:31S 29°52' E 031°01'0 0.0
2014-Sep-18 21:31S 29°52' E 031°01'0 0.0
2014-Sep-18 20:19S 29°52' E 031°01'0 0.0
2014-Sep-18 19:19S 29°52' E 031°01'0 0.0
2014-Sep-18 18:31S 29°52' E 031°01'0 0.0
2014-Sep-18 17:31S 29°52' E 031°01'0 0.0
2014-Sep-18 16:31S 29°52' E 031°01'0 0.0
2014-Sep-18 15:19S 29°52' E 031°01'0 0.0
2014-Sep-18 14:31S 29°52' E 031°01'0 0.0
2014-Sep-18 13:31S 29°52' E 031°01'0 0.0
2014-Sep-18 12:31S 29°52' E 031°01'0 0.0
2014-Sep-18 11:31S 29°52' E 031°01'0 0.0
2014-Sep-18 10:31S 29°52' E 031°01'0 0.0
2014-Sep-18 09:31S 29°52' E 031°01'0 0.0
2014-Sep-18 08:31S 29°52' E 031°01'0 0.0
2014-Sep-18 07:25S 29°52' E 031°01'0 0.0
2014-Sep-18 06:31S 29°52' E 031°01'0 0.0
2014-Sep-18 05:19S 29°52' E 031°01'0 0.0
2014-Sep-18 04:25S 29°52' E 031°01'0 0.0
2014-Sep-18 03:31S 29°52' E 031°01'0 0.0
2014-Sep-18 02:31S 29°52' E 031°01'0 0.0
2014-Sep-18 01:19S 29°52' E 031°01'0 0.0
2014-Sep-18 00:31S 29°52' E 031°01'0 0.0
2014-Sep-17 23:31S 29°52' E 031°01'0 0.0
2014-Sep-17 22:31S 29°52' E 031°01'0 0.0
2014-Sep-17 21:31S 29°52' E 031°01'0 0.0
2014-Sep-17 20:30S 29°52' E 031°01'0 0.0
2014-Sep-17 19:19S 29°52' E 031°01'0 0.0
2014-Sep-17 18:31S 29°52' E 031°01'0 0.0
2014-Sep-17 17:31S 29°52' E 031°01'0 0.0
2014-Sep-17 16:30S 29°52' E 031°01'0 0.0
2014-Sep-17 15:32S 29°52' E 031°01'0 0.0
2014-Sep-17 14:30S 29°52' E 031°01'  

Dump ship's entire track history